Time;durP1;ratioP1;P1;durP2;ratioP2;P2;SDS_P1;SDS_P2;PMS_P1;PMS_P2;Temp;Humidity;BMP_temperature;BMP_pressure;BME280_temperature;BME280_humidity;BME280_pressure;Samples;Min_cycle;Max_cycle;Signal;HPM_P1;HPM_P2
2023/06/01 00:00:00;;;;;;;12.85;9.43;;;11.90;99.90;;;;;;4891643;29;20043;-68
2023/06/01 00:02:27;;;;;;;13.93;11.52;;;11.90;99.90;;;;;;4899929;29;20514;-67
2023/06/01 00:04:53;;;;;;;15.50;12.40;;;11.90;99.90;;;;;;4902398;29;20364;-68
2023/06/01 00:07:20;;;;;;;22.48;12.50;;;11.90;99.90;;;;;;4904263;29;20038;-68
2023/06/01 00:09:47;;;;;;;14.10;10.38;;;11.90;99.90;;;;;;4897171;29;20597;-67
2023/06/01 00:12:13;;;;;;;16.60;11.70;;;11.90;99.90;;;;;;4902595;29;20038;-67
2023/06/01 00:14:39;;;;;;;17.17;11.30;;;11.80;99.90;;;;;;4900876;29;20058;-68
2023/06/01 00:17:07;;;;;;;9.07;7.22;;;11.90;99.90;;;;;;4883001;29;20492;-69
2023/06/01 00:19:34;;;;;;;14.48;10.82;;;11.90;99.90;;;;;;4877827;29;20055;-67
2023/06/01 00:22:01;;;;;;;18.40;11.52;;;11.90;99.90;;;;;;4898555;29;20620;-67
2023/06/01 00:24:27;;;;;;;15.00;10.18;;;11.90;99.90;;;;;;4883465;29;20047;-68
2023/06/01 00:26:53;;;;;;;12.80;9.38;;;11.90;99.90;;;;;;4901214;29;20043;-68
2023/06/01 00:29:20;;;;;;;12.70;9.55;;;12.00;99.90;;;;;;4885663;29;20229;-68
2023/06/01 00:31:47;;;;;;;11.73;8.77;;;12.00;99.90;;;;;;4900221;29;20569;-68
2023/06/01 00:34:14;;;;;;;18.02;11.38;;;12.00;99.90;;;;;;4900266;29;20043;-68
2023/06/01 00:36:40;;;;;;;20.20;10.95;;;12.00;99.90;;;;;;4869429;29;20035;-68
2023/06/01 00:39:07;;;;;;;15.32;9.95;;;12.00;99.90;;;;;;4880216;29;20031;-67
2023/06/01 00:41:33;;;;;;;14.00;8.65;;;11.90;99.90;;;;;;4859417;29;20052;-68
2023/06/01 00:44:00;;;;;;;15.77;9.65;;;11.80;99.90;;;;;;4896915;29;20292;-68
2023/06/01 00:46:29;;;;;;;10.57;6.97;;;11.80;99.90;;;;;;4883002;29;20047;-67
2023/06/01 00:48:55;;;;;;;11.35;7.93;;;11.80;99.90;;;;;;4899867;29;20039;-68
2023/06/01 00:51:22;;;;;;;14.48;8.88;;;11.80;99.90;;;;;;4897590;29;20475;-68
2023/06/01 00:53:49;;;;;;;13.32;8.68;;;11.80;99.90;;;;;;4904536;29;21014;-69
2023/06/01 00:56:17;;;;;;;13.57;7.88;;;11.80;99.90;;;;;;4886202;29;20048;-67
2023/06/01 00:58:43;;;;;;;9.48;7.05;;;11.80;99.90;;;;;;4883111;29;20086;-67
2023/06/01 01:01:18;;;;;;;12.07;7.35;;;11.90;99.90;;;;;;4874254;29;20050;-68
2023/06/01 01:03:47;;;;;;;9.68;6.72;;;11.90;99.90;;;;;;4882764;29;20427;-68
2023/06/01 01:06:36;;;;;;;15.88;7.28;;;11.90;99.90;;;;;;4899719;29;20051;-67
2023/06/01 01:09:23;;;;;;;16.58;9.18;;;11.90;99.90;;;;;;4897984;29;20519;-67
2023/06/01 01:12:09;;;;;;;15.68;10.38;;;11.90;99.90;;;;;;4887486;29;20032;-68
2023/06/01 01:14:44;;;;;;;15.23;7.70;;;11.80;99.90;;;;;;4907971;29;20036;-67
2023/06/01 01:17:26;;;;;;;10.95;6.45;;;11.80;99.90;;;;;;4905966;29;20031;-67
2023/06/01 01:20:08;;;;;;;13.00;6.72;;;11.80;99.90;;;;;;4898388;29;21135;-68
2023/06/01 01:22:38;;;;;;;10.18;7.10;;;11.90;99.90;;;;;;4903176;29;20054;-68
2023/06/01 01:25:32;;;;;;;9.52;6.68;;;11.90;99.90;;;;;;4885965;29;20051;-67
2023/06/01 01:28:16;;;;;;;11.18;7.68;;;11.90;99.90;;;;;;4902718;29;20218;-67
2023/06/01 01:30:45;;;;;;;10.13;6.40;;;11.90;99.90;;;;;;4879374;29;20051;-68
2023/06/01 01:33:13;;;;;;;10.07;6.00;;;11.90;99.90;;;;;;4875406;29;20039;-67
2023/06/01 01:35:41;;;;;;;16.00;9.68;;;12.00;99.90;;;;;;4908707;29;20031;-67
2023/06/01 01:38:07;;;;;;;9.20;6.65;;;11.90;99.90;;;;;;4906299;29;20597;-68
2023/06/01 01:40:33;;;;;;;9.13;6.28;;;11.90;99.90;;;;;;4895810;29;20043;-68
2023/06/01 01:43:01;;;;;;;10.35;5.78;;;11.80;99.90;;;;;;4870578;29;20027;-68
2023/06/01 01:45:28;;;;;;;7.32;5.00;;;11.80;99.90;;;;;;4903522;29;20407;-68
2023/06/01 01:48:10;;;;;;;12.05;7.28;;;11.90;99.90;;;;;;4887798;29;20032;-67
2023/06/01 01:50:45;;;;;;;8.27;6.03;;;11.90;99.90;;;;;;4897048;29;20039;-68
2023/06/01 01:53:12;;;;;;;8.23;6.28;;;11.90;99.90;;;;;;4903670;28;20020;-67
2023/06/01 01:55:39;;;;;;;11.10;6.25;;;11.90;99.90;;;;;;4889519;29;20059;-68
2023/06/01 01:58:06;;;;;;;13.60;7.90;;;11.90;99.90;;;;;;4906603;29;20436;-70
2023/06/01 02:00:32;;;;;;;13.50;7.45;;;11.90;99.90;;;;;;4898850;29;20040;-67
2023/06/01 02:03:00;;;;;;;11.70;6.22;;;11.90;99.90;;;;;;4903897;29;20043;-68
2023/06/01 02:05:26;;;;;;;12.02;6.15;;;11.90;99.90;;;;;;4887718;29;20549;-68
2023/06/01 02:07:52;;;;;;;9.98;6.85;;;11.90;99.90;;;;;;4885205;29;20038;-68
2023/06/01 02:10:19;;;;;;;10.68;6.38;;;11.90;99.90;;;;;;4862092;29;20036;-67
2023/06/01 02:12:45;;;;;;;12.20;7.20;;;11.90;99.90;;;;;;4896846;29;20035;-67
2023/06/01 02:15:11;;;;;;;7.60;5.70;;;11.90;99.90;;;;;;4886079;29;20032;-68
2023/06/01 02:17:40;;;;;;;14.38;7.32;;;11.90;99.90;;;;;;4904978;29;20597;-68
2023/06/01 02:20:06;;;;;;;12.68;8.30;;;11.90;99.90;;;;;;4868806;29;20055;-67
2023/06/01 02:22:33;;;;;;;10.32;6.70;;;11.90;99.90;;;;;;4904277;29;20054;-68
2023/06/01 02:24:59;;;;;;;12.00;7.93;;;11.80;99.90;;;;;;4901437;29;20031;-68
2023/06/01 02:27:25;;;;;;;8.38;5.90;;;11.80;99.90;;;;;;4886190;29;20059;-69
2023/06/01 02:29:52;;;;;;;11.48;6.63;;;11.80;99.90;;;;;;4895690;29;20031;-68
2023/06/01 02:32:18;;;;;;;9.63;6.22;;;11.70;99.90;;;;;;4885246;29;20039;-68
2023/06/01 02:34:45;;;;;;;13.68;7.03;;;11.70;99.90;;;;;;4885634;29;20031;-68
2023/06/01 02:37:12;;;;;;;11.73;7.45;;;11.70;99.90;;;;;;4870968;29;20048;-68
2023/06/01 02:39:38;;;;;;;11.68;6.07;;;11.60;99.90;;;;;;4887139;29;20055;-68
2023/06/01 02:42:05;;;;;;;7.82;5.15;;;11.70;99.90;;;;;;4906347;29;20160;-67
2023/06/01 02:44:31;;;;;;;9.15;6.10;;;11.70;99.90;;;;;;4886728;29;20038;-68
2023/06/01 02:46:58;;;;;;;14.07;8.25;;;11.70;99.90;;;;;;4866566;29;20707;-68
2023/06/01 02:49:24;;;;;;;14.60;7.90;;;11.70;99.90;;;;;;4895762;29;20039;-67
2023/06/01 02:51:50;;;;;;;15.88;7.60;;;11.70;99.90;;;;;;4882787;29;20069;-67
2023/06/01 02:54:23;;;;;;;16.17;8.90;;;11.70;99.90;;;;;;4898266;29;20371;-68
2023/06/01 02:56:50;;;;;;;12.35;6.72;;;11.60;99.90;;;;;;4883488;29;20050;-68
2023/06/01 02:59:27;;;;;;;11.15;5.80;;;11.60;99.90;;;;;;4898289;29;20039;-68
2023/06/01 03:01:59;;;;;;;14.73;8.68;;;11.60;99.90;;;;;;4890174;29;20383;-69
2023/06/01 03:04:28;;;;;;;10.52;6.65;;;11.60;99.90;;;;;;4906367;29;20383;-67
2023/06/01 03:06:56;;;;;;;14.43;7.90;;;11.60;99.90;;;;;;4901735;29;20044;-67
2023/06/01 03:09:34;;;;;;;13.32;7.10;;;11.60;99.90;;;;;;4895391;29;20579;-67
2023/06/01 03:12:04;;;;;;;11.73;7.13;;;11.60;99.90;;;;;;4899448;29;20375;-67
2023/06/01 03:14:32;;;;;;;10.02;6.13;;;11.60;99.90;;;;;;4869507;29;20036;-67
2023/06/01 03:16:58;;;;;;;9.38;6.63;;;11.60;99.90;;;;;;4900924;29;20039;-68
2023/06/01 03:19:25;;;;;;;17.88;8.20;;;11.60;99.90;;;;;;4864714;29;20035;-67
2023/06/01 03:21:54;;;;;;;12.80;7.35;;;11.60;99.90;;;;;;4902878;29;20420;-68
2023/06/01 03:24:27;;;;;;;12.23;7.50;;;11.60;99.90;;;;;;4888643;29;20040;-67
2023/06/01 03:26:54;;;;;;;8.52;5.95;;;11.70;99.90;;;;;;4871972;29;20055;-68
2023/06/01 03:29:21;;;;;;;10.60;6.22;;;11.70;99.90;;;;;;4897832;29;21107;-67
2023/06/01 03:31:48;;;;;;;10.70;6.53;;;11.70;99.90;;;;;;4880662;29;20384;-67
2023/06/01 03:34:16;;;;;;;9.82;6.05;;;11.70;99.90;;;;;;4869284;29;20467;-68
2023/06/01 03:36:47;;;;;;;9.07;5.15;;;11.70;99.90;;;;;;4882282;29;20164;-67
2023/06/01 03:39:17;;;;;;;7.88;5.57;;;11.80;99.90;;;;;;4879278;29;22852;-67
2023/06/01 03:41:44;;;;;;;13.70;6.80;;;11.90;99.90;;;;;;4864709;29;20051;-67
2023/06/01 03:44:11;;;;;;;13.13;7.57;;;11.80;99.90;;;;;;4871681;29;20040;-67
2023/06/01 03:46:39;;;;;;;15.60;6.63;;;11.80;99.90;;;;;;4905231;29;20028;-67
2023/06/01 03:49:05;;;;;;;11.43;6.00;;;11.80;99.90;;;;;;4901862;29;20039;-67
2023/06/01 03:51:32;;;;;;;15.13;6.93;;;11.80;99.90;;;;;;4875492;29;20036;-68
2023/06/01 03:53:59;;;;;;;12.30;6.53;;;11.80;99.90;;;;;;4882832;29;20058;-68
2023/06/01 03:56:25;;;;;;;10.05;5.57;;;11.80;99.90;;;;;;4864844;29;21629;-67
2023/06/01 03:58:56;;;;;;;8.57;5.25;;;11.70;99.90;;;;;;4868959;29;20043;-67
2023/06/01 04:01:23;;;;;;;8.85;6.13;;;11.70;99.90;;;;;;4893859;29;20036;-67
2023/06/01 04:03:50;;;;;;;13.25;7.55;;;11.70;99.90;;;;;;4884593;29;20046;-68
2023/06/01 04:06:17;;;;;;;10.20;6.32;;;11.80;99.90;;;;;;4888386;29;20050;-68
2023/06/01 04:08:49;;;;;;;13.98;7.28;;;11.70;99.90;;;;;;4887002;29;20043;-67
2023/06/01 04:11:16;;;;;;;10.55;4.88;;;11.70;99.90;;;;;;4879236;29;20047;-68
2023/06/01 04:13:43;;;;;;;10.85;6.18;;;11.70;99.90;;;;;;4882579;29;20031;-67
2023/06/01 04:16:10;;;;;;;12.15;5.50;;;11.70;99.90;;;;;;4881146;29;21118;-67
2023/06/01 04:18:38;;;;;;;10.85;5.50;;;11.80;99.90;;;;;;4867543;29;20983;-68
2023/06/01 04:21:06;;;;;;;9.13;5.30;;;11.80;99.90;;;;;;4891416;29;20035;-68
2023/06/01 04:23:33;;;;;;;10.38;5.43;;;11.80;99.90;;;;;;4885072;29;20028;-67
2023/06/01 04:26:00;;;;;;;10.02;4.85;;;11.90;99.90;;;;;;4886384;29;20535;-68
2023/06/01 04:28:27;;;;;;;8.82;5.80;;;11.90;99.90;;;;;;4904359;29;20383;-68
2023/06/01 04:30:55;;;;;;;12.80;5.30;;;12.00;99.90;;;;;;4896810;29;20035;-68
2023/06/01 04:33:22;;;;;;;11.65;5.82;;;12.00;99.90;;;;;;4868699;29;20046;-67
2023/06/01 04:35:49;;;;;;;10.73;4.65;;;12.00;99.90;;;;;;4885025;29;20043;-67
2023/06/01 04:38:16;;;;;;;14.68;6.07;;;12.10;99.90;;;;;;4897995;29;20039;-67
2023/06/01 04:40:46;;;;;;;9.75;4.20;;;12.10;99.90;;;;;;4876413;29;20040;-67
2023/06/01 04:43:18;;;;;;;9.10;4.82;;;12.20;99.90;;;;;;4896175;29;20047;-67
2023/06/01 04:45:46;;;;;;;13.15;5.20;;;12.20;99.90;;;;;;4902365;29;20039;-68
2023/06/01 04:48:14;;;;;;;8.85;4.20;;;12.20;99.90;;;;;;4872095;29;20035;-68
2023/06/01 04:50:55;;;;;;;11.48;4.68;;;12.30;99.90;;;;;;4898106;29;20047;-67
2023/06/01 04:53:21;;;;;;;11.18;4.25;;;12.30;99.90;;;;;;4898760;29;20065;-68
2023/06/01 04:55:48;;;;;;;7.95;4.53;;;12.40;99.90;;;;;;4881300;29;20898;-67
2023/06/01 04:58:15;;;;;;;12.63;5.40;;;12.50;99.90;;;;;;4882479;29;20028;-68
2023/06/01 05:00:42;;;;;;;12.75;5.68;;;12.50;99.90;;;;;;4876991;29;20036;-68
2023/06/01 05:03:08;;;;;;;11.60;5.43;;;12.50;99.90;;;;;;4884438;29;20483;-68
2023/06/01 05:05:34;;;;;;;12.43;5.45;;;12.50;99.90;;;;;;4868688;29;20048;-68
2023/06/01 05:08:02;;;;;;;11.07;5.40;;;12.50;99.90;;;;;;4886905;29;20058;-68
2023/06/01 05:10:29;;;;;;;7.95;4.95;;;12.50;99.90;;;;;;4899174;29;20040;-67
2023/06/01 05:12:56;;;;;;;12.45;4.85;;;12.60;99.90;;;;;;4901978;29;20039;-67
2023/06/01 05:15:22;;;;;;;11.15;5.68;;;12.60;99.90;;;;;;4900552;29;20039;-67
2023/06/01 05:17:49;;;;;;;12.30;5.70;;;12.70;99.90;;;;;;4898090;29;20039;-67
2023/06/01 05:20:17;;;;;;;9.98;5.55;;;12.70;99.90;;;;;;4873578;29;20078;-67
2023/06/01 05:22:49;;;;;;;12.30;5.77;;;12.80;99.90;;;;;;4865510;29;20040;-72
2023/06/01 05:25:16;;;;;;;13.25;8.13;;;12.80;99.90;;;;;;4897739;29;20564;-71
2023/06/01 05:27:44;;;;;;;16.02;8.68;;;12.80;99.90;;;;;;4882004;29;20039;-71
2023/06/01 05:30:11;;;;;;;11.18;7.65;;;12.70;99.90;;;;;;4893157;29;20658;-70
2023/06/01 05:32:37;;;;;;;12.80;7.03;;;12.70;99.90;;;;;;4887894;29;20062;-71
2023/06/01 05:35:10;;;;;;;13.60;6.05;;;12.70;99.90;;;;;;4902363;29;20042;-71
2023/06/01 05:37:37;;;;;;;12.10;6.60;;;12.80;99.90;;;;;;4865809;29;20032;-72
2023/06/01 05:40:06;;;;;;;11.52;6.63;;;12.80;99.90;;;;;;4876560;29;20044;-71
2023/06/01 05:42:33;;;;;;;13.48;7.93;;;12.90;99.90;;;;;;4897543;29;20063;-70
2023/06/01 05:45:00;;;;;;;12.98;6.28;;;13.00;99.90;;;;;;4897473;29;20063;-66
2023/06/01 05:47:26;;;;;;;13.27;6.28;;;13.10;99.90;;;;;;4896755;29;20602;-71
2023/06/01 05:49:52;;;;;;;9.65;5.80;;;13.10;99.90;;;;;;4874603;29;20067;-70
2023/06/01 05:52:19;;;;;;;14.75;7.70;;;13.10;99.90;;;;;;4902139;29;20395;-73
2023/06/01 05:54:45;;;;;;;13.30;6.75;;;13.10;99.90;;;;;;4904043;29;20427;-71
2023/06/01 05:57:12;;;;;;;10.77;5.95;;;13.20;99.90;;;;;;4886831;29;20462;-71
2023/06/01 05:59:38;;;;;;;15.35;6.78;;;13.20;99.90;;;;;;4875833;29;20046;-71
2023/06/01 06:02:05;;;;;;;10.65;6.55;;;13.20;99.90;;;;;;4866967;29;20492;-67
2023/06/01 06:04:31;;;;;;;11.63;5.28;;;13.20;99.90;;;;;;4898064;29;20047;-67
2023/06/01 06:06:57;;;;;;;12.50;5.00;;;13.10;99.90;;;;;;4882670;29;20046;-67
2023/06/01 06:09:24;;;;;;;14.70;6.10;;;13.20;99.90;;;;;;4895600;29;21711;-66
2023/06/01 06:11:50;;;;;;;12.85;6.28;;;13.30;99.90;;;;;;4896519;29;20881;-66
2023/06/01 06:14:16;;;;;;;12.75;6.50;;;13.30;99.90;;;;;;4905315;29;20036;-66
2023/06/01 06:16:43;;;;;;;13.35;5.53;;;13.40;99.90;;;;;;4906087;29;20027;-67
2023/06/01 06:19:09;;;;;;;9.48;4.90;;;13.50;99.90;;;;;;4890168;29;20039;-67
2023/06/01 06:21:37;;;;;;;8.68;4.38;;;13.50;99.90;;;;;;4897250;29;20035;-67
2023/06/01 06:24:04;;;;;;;11.80;5.22;;;13.70;99.90;;;;;;4901577;29;20502;-67
2023/06/01 06:26:30;;;;;;;12.98;6.63;;;13.80;99.90;;;;;;4902385;29;20055;-67
2023/06/01 06:28:56;;;;;;;9.77;5.10;;;13.90;99.90;;;;;;4884816;29;20058;-66
2023/06/01 06:31:23;;;;;;;9.77;5.38;;;13.90;99.90;;;;;;4893960;29;20027;-68
2023/06/01 06:33:49;;;;;;;6.55;3.53;;;14.00;99.90;;;;;;4884771;29;20027;-66
2023/06/01 06:36:16;;;;;;;8.23;4.72;;;14.10;99.90;;;;;;4902025;29;20027;-66
2023/06/01 06:38:42;;;;;;;11.32;5.07;;;14.20;99.90;;;;;;4903936;29;20052;-68
2023/06/01 06:41:09;;;;;;;9.07;5.07;;;14.30;99.90;;;;;;4898306;29;20529;-67
2023/06/01 06:43:35;;;;;;;9.88;5.68;;;14.40;99.90;;;;;;4889297;29;20039;-67
2023/06/01 06:46:03;;;;;;;10.90;5.72;;;14.30;99.90;;;;;;4904214;29;20111;-66
2023/06/01 06:48:29;;;;;;;10.48;4.90;;;14.30;99.90;;;;;;4885341;29;20031;-66
2023/06/01 06:50:56;;;;;;;9.18;4.40;;;14.40;99.90;;;;;;4895618;29;20484;-67
2023/06/01 06:53:22;;;;;;;7.95;4.88;;;14.40;99.90;;;;;;4885236;29;20542;-67
2023/06/01 06:55:48;;;;;;;10.43;4.85;;;14.40;99.90;;;;;;4886183;29;20036;-66
2023/06/01 06:58:15;;;;;;;7.63;4.18;;;14.50;99.90;;;;;;4902184;28;20034;-71
2023/06/01 07:00:41;;;;;;;7.75;4.18;;;14.60;99.90;;;;;;4863188;29;20401;-71
2023/06/01 07:03:08;;;;;;;8.50;5.32;;;14.80;99.90;;;;;;4906857;29;20038;-72
2023/06/01 07:05:35;;;;;;;13.25;6.00;;;15.00;99.90;;;;;;4906923;29;20036;-71
2023/06/01 07:08:01;;;;;;;11.32;6.05;;;15.00;99.90;;;;;;4883956;29;20039;-72
2023/06/01 07:10:27;;;;;;;8.85;4.68;;;14.90;99.90;;;;;;4861742;29;20515;-72
2023/06/01 07:12:54;;;;;;;8.73;5.43;;;14.80;99.90;;;;;;4900426;29;20034;-71
2023/06/01 07:15:21;;;;;;;12.02;4.57;;;14.70;99.90;;;;;;4884996;29;20477;-71
2023/06/01 07:17:47;;;;;;;9.38;4.82;;;14.50;99.90;;;;;;4901886;29;20032;-72
2023/06/01 07:20:14;;;;;;;9.75;4.95;;;14.60;99.90;;;;;;4890225;29;20803;-66
2023/06/01 07:22:40;;;;;;;9.35;4.72;;;14.80;99.90;;;;;;4902630;29;20058;-67
2023/06/01 07:25:07;;;;;;;9.52;4.45;;;15.20;99.90;;;;;;4906084;29;20032;-67
2023/06/01 07:27:36;;;;;;;8.95;5.32;;;15.60;99.90;;;;;;4889075;29;20055;-67
2023/06/01 07:30:03;;;;;;;9.30;4.38;;;16.00;99.90;;;;;;4877782;29;20032;-67
2023/06/01 07:32:30;;;;;;;11.98;5.53;;;16.40;99.90;;;;;;4900957;29;20038;-67
2023/06/01 07:34:57;;;;;;;10.63;5.45;;;16.70;99.90;;;;;;4901439;29;20032;-67
2023/06/01 07:37:26;;;;;;;13.38;4.72;;;16.90;99.90;;;;;;4902177;29;20047;-67
2023/06/01 07:39:56;;;;;;;9.55;3.75;;;17.00;99.90;;;;;;4877194;29;20588;-66
2023/06/01 07:42:22;;;;;;;10.52;5.03;;;17.20;99.90;;;;;;4901739;29;20035;-67
2023/06/01 07:44:49;;;;;;;7.15;4.30;;;17.20;99.90;;;;;;4888737;29;20028;-66
2023/06/01 07:47:15;;;;;;;11.35;5.30;;;17.20;99.90;;;;;;4907560;29;20046;-67
2023/06/01 07:49:41;;;;;;;11.77;4.88;;;17.30;99.90;;;;;;4882834;29;20051;-66
2023/06/01 07:52:08;;;;;;;8.13;5.13;;;17.40;99.90;;;;;;4882834;29;20040;-67
2023/06/01 07:54:37;;;;;;;7.88;4.30;;;17.40;99.90;;;;;;4901337;29;20125;-67
2023/06/01 07:57:04;;;;;;;9.00;3.92;;;17.40;99.90;;;;;;4885674;29;20044;-67
2023/06/01 07:59:31;;;;;;;7.97;5.30;;;17.40;99.90;;;;;;4899470;29;21028;-62
2023/06/01 08:01:59;;;;;;;8.02;4.75;;;17.30;99.90;;;;;;4898741;29;20040;-66
2023/06/01 08:04:26;;;;;;;9.13;3.80;;;17.30;99.90;;;;;;4903422;29;20040;-67
2023/06/01 08:06:55;;;;;;;9.50;4.45;;;17.50;99.90;;;;;;4906355;29;20566;-67
2023/06/01 08:09:25;;;;;;;7.47;4.00;;;17.70;99.90;;;;;;4902644;29;20031;-67
2023/06/01 08:11:53;;;;;;;8.82;3.45;;;17.90;99.90;;;;;;4900620;29;20024;-66
2023/06/01 08:14:19;;;;;;;8.30;3.83;;;18.00;99.90;;;;;;4882630;29;20031;-67
2023/06/01 08:16:45;;;;;;;12.60;4.60;;;18.20;99.90;;;;;;4901306;29;20042;-67
2023/06/01 08:19:12;;;;;;;5.38;3.75;;;18.20;99.90;;;;;;4899978;29;20032;-67
2023/06/01 08:21:41;;;;;;;9.73;3.75;;;18.20;99.90;;;;;;4879011;29;20427;-66
2023/06/01 08:24:11;;;;;;;7.07;3.80;;;18.30;99.90;;;;;;4902246;29;20028;-67
2023/06/01 08:26:37;;;;;;;8.02;3.88;;;18.40;99.90;;;;;;4903524;29;20486;-67
2023/06/01 08:29:03;;;;;;;4.35;2.97;;;18.50;99.90;;;;;;4905715;29;20027;-66
2023/06/01 08:31:30;;;;;;;7.07;3.20;;;18.60;99.90;;;;;;4881909;29;20040;-67
2023/06/01 08:33:56;;;;;;;6.82;3.17;;;18.60;99.90;;;;;;4903303;28;20047;-67
2023/06/01 08:36:22;;;;;;;6.55;3.40;;;18.70;99.90;;;;;;4884353;29;20527;-66
2023/06/01 08:38:50;;;;;;;4.13;2.67;;;18.70;99.70;;;;;;4885592;29;20031;-66
2023/06/01 08:41:22;;;;;;;5.55;3.42;;;18.80;99.60;;;;;;4893515;29;20062;-66
2023/06/01 08:43:55;;;;;;;9.40;4.55;;;18.90;99.70;;;;;;4883159;29;20630;-66
2023/06/01 08:46:22;;;;;;;6.53;3.38;;;19.00;99.20;;;;;;4901548;29;20043;-67
2023/06/01 08:48:53;;;;;;;8.00;4.88;;;19.10;99.10;;;;;;4887454;29;20032;-67
2023/06/01 08:51:22;;;;;;;5.95;3.78;;;19.30;98.80;;;;;;4881343;29;20376;-66
2023/06/01 08:53:50;;;;;;;9.63;5.43;;;19.40;98.70;;;;;;4902547;29;20054;-66
2023/06/01 08:56:17;;;;;;;7.38;4.63;;;19.60;98.50;;;;;;4897792;29;20044;-67
2023/06/01 08:58:44;;;;;;;5.63;3.17;;;19.80;98.00;;;;;;4899924;29;20039;-66
2023/06/01 09:01:18;;;;;;;6.55;3.72;;;19.80;97.80;;;;;;4892341;29;20585;-67
2023/06/01 09:03:44;;;;;;;7.78;3.45;;;20.00;97.50;;;;;;4899870;29;20407;-66
2023/06/01 09:06:11;;;;;;;8.43;3.47;;;20.00;97.30;;;;;;4900158;29;20050;-67
2023/06/01 09:08:37;;;;;;;6.72;2.78;;;20.10;97.20;;;;;;4884596;29;20047;-66
2023/06/01 09:11:04;;;;;;;6.10;2.97;;;20.20;96.90;;;;;;4896466;29;20043;-67
2023/06/01 09:13:32;;;;;;;7.55;3.47;;;20.30;96.50;;;;;;4904000;29;20046;-67
2023/06/01 09:15:58;;;;;;;7.32;3.22;;;20.40;96.00;;;;;;4901149;29;20044;-66
2023/06/01 09:18:25;;;;;;;5.53;2.42;;;20.50;95.60;;;;;;4883989;29;20593;-66
2023/06/01 09:20:53;;;;;;;4.68;2.67;;;20.50;95.50;;;;;;4889667;28;20044;-67
2023/06/01 09:23:24;;;;;;;3.97;2.22;;;20.50;95.10;;;;;;4884218;29;20047;-66
2023/06/01 09:26:07;;;;;;;7.00;2.00;;;20.40;94.80;;;;;;4899012;29;20056;-66
2023/06/01 09:28:55;;;;;;;5.78;2.40;;;20.50;94.60;;;;;;4898297;29;20032;-67
2023/06/01 09:31:36;;;;;;;5.85;2.00;;;20.60;94.10;;;;;;4881188;29;20039;-66
2023/06/01 09:34:04;;;;;;;3.70;2.42;;;20.60;94.20;;;;;;4890543;29;20376;-67
2023/06/01 09:36:30;;;;;;;3.30;1.75;;;20.60;94.00;;;;;;4906040;29;20062;-67
2023/06/01 09:39:18;;;;;;;4.95;2.90;;;20.70;94.00;;;;;;4887057;29;21577;-67
2023/06/01 09:41:55;;;;;;;3.67;2.63;;;21.00;93.50;;;;;;4897523;29;20051;-66
2023/06/01 09:44:32;;;;;;;6.20;3.00;;;21.10;93.20;;;;;;4902516;29;20035;-66
2023/06/01 09:47:01;;;;;;;5.45;3.00;;;21.20;92.80;;;;;;4903424;29;20090;-66
2023/06/01 09:49:42;;;;;;;3.90;2.10;;;21.20;92.60;;;;;;4881773;29;20082;-66
2023/06/01 09:52:14;;;;;;;5.50;2.40;;;21.40;92.80;;;;;;4905756;29;20475;-66
2023/06/01 09:54:43;;;;;;;5.72;3.30;;;21.50;92.60;;;;;;4891043;29;20403;-67
2023/06/01 09:57:11;;;;;;;6.03;2.90;;;21.70;92.20;;;;;;4889011;29;20047;-66
2023/06/01 09:59:46;;;;;;;3.20;2.00;;;21.80;91.80;;;;;;4880950;29;20056;-66
2023/06/01 10:02:17;;;;;;;6.07;2.50;;;21.90;91.70;;;;;;4902267;29;20399;-66
2023/06/01 10:04:52;;;;;;;6.38;2.65;;;22.00;91.40;;;;;;4903349;29;20039;-66
2023/06/01 10:07:20;;;;;;;6.03;2.60;;;22.10;90.90;;;;;;4887316;29;20124;-66
2023/06/01 10:09:57;;;;;;;5.13;2.40;;;22.10;91.00;;;;;;4897201;29;20036;-66
2023/06/01 10:12:25;;;;;;;6.75;3.75;;;22.10;90.70;;;;;;4904693;29;20040;-66
2023/06/01 10:14:52;;;;;;;4.60;2.85;;;22.10;90.50;;;;;;4907936;29;20040;-66
2023/06/01 10:17:19;;;;;;;5.70;3.28;;;22.20;90.40;;;;;;4908212;29;20035;-66
2023/06/01 10:19:46;;;;;;;4.78;2.75;;;22.10;90.30;;;;;;4884681;29;20395;-66
2023/06/01 10:22:12;;;;;;;6.05;2.72;;;22.10;90.30;;;;;;4885843;29;20046;-66
2023/06/01 10:24:43;;;;;;;5.13;2.35;;;22.20;90.50;;;;;;4870154;29;20054;-67
2023/06/01 10:27:20;;;;;;;3.78;2.10;;;22.50;90.20;;;;;;4871059;29;20087;-66
2023/06/01 10:29:47;;;;;;;3.67;1.98;;;22.80;90.20;;;;;;4899789;29;20056;-67
2023/06/01 10:32:45;;;;;;;5.70;2.30;;;22.90;89.30;;;;;;4903691;29;20042;-67
2023/06/01 10:35:26;;;;;;;7.40;2.88;;;23.00;88.40;;;;;;4905633;29;20035;-67
2023/06/01 10:38:13;;;;;;;6.93;2.92;;;23.20;87.20;;;;;;4907268;29;20127;-67
2023/06/01 10:40:41;;;;;;;3.33;1.58;;;23.20;86.50;;;;;;4876399;29;20052;-66
2023/06/01 10:43:27;;;;;;;5.35;2.92;;;23.50;87.30;;;;;;4901670;29;20031;-68
2023/06/01 10:45:53;;;;;;;5.55;2.40;;;23.80;85.40;;;;;;4885404;29;20039;-66
2023/06/01 10:48:53;;;;;;;3.83;2.15;;;24.00;85.20;;;;;;4898340;29;20028;-66
2023/06/01 10:51:21;;;;;;;5.53;3.22;;;24.30;83.90;;;;;;4895801;29;20046;-67
2023/06/01 10:53:47;;;;;;;4.30;1.92;;;24.50;83.00;;;;;;4886191;29;20042;-67
2023/06/01 10:56:27;;;;;;;6.90;3.10;;;24.70;83.10;;;;;;4904346;29;20624;-67
2023/06/01 10:59:08;;;;;;;4.50;2.75;;;25.00;82.00;;;;;;4906272;29;20527;-67
2023/06/01 11:01:40;;;;;;;5.38;3.38;;;25.30;80.50;;;;;;4901137;29;20047;-67
2023/06/01 11:04:07;;;;;;;5.95;2.80;;;25.50;78.60;;;;;;4899963;29;20040;-66
2023/06/01 11:06:37;;;;;;;4.78;2.65;;;25.60;77.90;;;;;;4901086;29;20038;-67
2023/06/01 11:09:11;;;;;;;5.65;2.00;;;25.80;76.80;;;;;;4897660;29;20047;-66
2023/06/01 11:11:52;;;;;;;4.55;2.60;;;25.90;76.70;;;;;;4894623;29;20383;-66
2023/06/01 11:14:24;;;;;;;5.82;2.67;;;26.20;76.30;;;;;;4882852;29;20699;-66
2023/06/01 11:16:54;;;;;;;;;;;26.60;75.70;;;;;;4884396;29;20880;-67
2023/06/01 11:19:24;;;;;;;6.93;2.28;;;26.90;73.70;;;;;;4885312;29;19926;-66
2023/06/01 11:22:01;;;;;;;8.77;2.60;;;27.20;73.80;;;;;;4869416;29;20051;-66
2023/06/01 11:24:36;;;;;;;5.97;2.60;;;27.60;71.80;;;;;;4896329;29;20166;-67
2023/06/01 11:27:07;;;;;;;4.78;2.38;;;27.90;70.60;;;;;;4881204;29;20051;-67
2023/06/01 11:29:34;;;;;;;4.57;1.80;;;28.20;69.90;;;;;;4893055;29;20044;-66
2023/06/01 11:32:03;;;;;;;5.57;1.95;;;28.50;68.40;;;;;;4879863;29;20062;-67
2023/06/01 11:34:38;;;;;;;8.30;2.60;;;28.70;68.30;;;;;;4896977;29;20046;-66
2023/06/01 11:37:06;;;;;;;5.70;2.65;;;29.10;66.90;;;;;;4899477;29;20051;-67
2023/06/01 11:39:33;;;;;;;4.93;2.42;;;29.40;66.40;;;;;;4898111;29;21296;-67
2023/06/01 11:42:10;;;;;;;6.13;2.42;;;29.60;64.90;;;;;;4886344;29;20028;-67
2023/06/01 11:44:42;;;;;;;5.60;2.08;;;29.70;64.80;;;;;;4885254;29;20055;-67
2023/06/01 11:47:09;;;;;;;3.63;2.40;;;29.90;63.40;;;;;;4899231;29;20035;-67
2023/06/01 11:49:50;;;;;;;4.22;2.35;;;30.00;62.90;;;;;;4891693;29;20040;-67
2023/06/01 11:52:17;;;;;;;5.05;2.35;;;30.20;62.30;;;;;;4897936;28;20036;-67
2023/06/01 11:54:44;;;;;;;4.30;2.08;;;30.50;61.20;;;;;;4897850;28;20035;-67
2023/06/01 11:57:11;;;;;;;5.95;2.85;;;30.60;60.40;;;;;;4898719;29;20027;-67
2023/06/01 11:59:47;;;;;;;4.80;2.70;;;30.70;59.30;;;;;;4896176;29;20055;-67
2023/06/01 12:02:20;;;;;;;4.60;2.60;;;30.80;59.40;;;;;;4886055;29;20047;-68
2023/06/01 12:04:56;;;;;;;6.00;2.47;;;31.00;58.60;;;;;;4902425;29;20031;-67
2023/06/01 12:07:24;;;;;;;4.00;2.00;;;31.10;57.40;;;;;;4898924;29;20032;-67
2023/06/01 12:09:54;;;;;;;3.80;2.40;;;31.20;57.40;;;;;;4888496;29;20616;-67
2023/06/01 12:12:24;;;;;;;5.70;2.90;;;31.50;56.90;;;;;;4897261;29;20719;-67
2023/06/01 12:14:51;;;;;;;5.40;2.72;;;31.80;56.20;;;;;;4881600;29;20487;-67
2023/06/01 12:17:18;;;;;;;5.30;2.72;;;31.90;55.20;;;;;;4896796;29;20032;-67
2023/06/01 12:19:47;;;;;;;4.95;2.40;;;32.00;54.50;;;;;;4875409;29;20571;-68
2023/06/01 12:22:14;;;;;;;6.93;2.45;;;31.90;54.30;;;;;;4884978;29;20050;-67
2023/06/01 12:24:41;;;;;;;6.15;2.20;;;32.10;54.40;;;;;;4902904;29;20484;-68
2023/06/01 12:27:15;;;;;;;6.22;3.17;;;32.60;53.80;;;;;;4903353;29;20062;-68
2023/06/01 12:29:43;;;;;;;6.13;2.50;;;33.00;52.50;;;;;;4878148;29;20403;-67
2023/06/01 12:32:12;;;;;;;5.13;2.38;;;33.00;52.10;;;;;;4881952;29;20545;-68
2023/06/01 12:34:39;;;;;;;4.88;2.72;;;33.10;51.60;;;;;;4898647;29;20031;-68
2023/06/01 12:37:17;;;;;;;7.78;2.47;;;33.20;51.60;;;;;;4899971;29;20044;-68
2023/06/01 12:39:50;;;;;;;9.63;2.40;;;33.40;51.30;;;;;;4863307;29;20514;-67
2023/06/01 12:42:17;;;;;;;7.13;2.10;;;33.60;50.50;;;;;;4901131;29;20042;-68
2023/06/01 12:44:43;;;;;;;6.22;2.15;;;33.60;50.00;;;;;;4904693;29;20040;-71
2023/06/01 12:47:09;;;;;;;6.40;2.50;;;33.70;50.10;;;;;;4906063;29;20040;-72
2023/06/01 12:49:37;;;;;;;6.07;2.50;;;33.90;49.60;;;;;;4901145;29;20047;-71
2023/06/01 12:52:04;;;;;;;4.30;1.73;;;34.20;48.60;;;;;;4900048;29;20055;-71